Latest Coastal Weather Observations for Shark Bay Airport

IDW60701

Issued at 3:12 pm WST Sunday 28 December 2014 (issued every 10 minutes, with the page automatically refreshed every 10 minutes)

About coastal observations | Map of coastal stations | Coastal observations for WA | Marine services | Other Formats
Station Details ID: 006105 Name: SHARK BAY AIRPORT Lat: -25.89 Lon: 113.58 Height: 33.8 m
Data from the previous 72 hours. | See also: Recent months for locations in Western Australia
Date/Time
WST
Temp

°C
Wind Pressure Rain
since 9am
mm
Weather Cloud Vis
km
Sea
Height
m
Swell
Dir
 
Speed
knots
Gust
knots
hPa Trend Height
m
Period
s
Dir
28/03:00pm 36.9 SSW 18 22 1009.9 - 0.0 - - - - - - -
28/02:30pm 37.2 SSW 17 22 1009.9 - 0.0 - - - - - - -
28/02:00pm 37.3 SW 18 22 1010.0 - 0.0 - - - - - - -
28/01:30pm 37.9 SSW 17 22 1010.2 - 0.0 - - - - - - -
28/01:00pm 38.1 SW 15 19 1010.3 - 0.0 - - - - - - -
28/12:30pm 38.7 SW 13 17 1010.4 - 0.0 - - - - - - -
28/12:00pm 39.8 ESE 6 12 1010.6 - 0.0 - - - - - - -
28/11:30am 39.3 E 8 12 1010.9 - 0.0 - - - - - - -
28/11:00am 38.7 ESE 9 14 1011.1 - 0.0 - - - - - - -
28/10:30am 36.8 ESE 12 17 1011.2 - 0.0 - - - - - - -
28/10:00am 35.8 SE 12 15 1011.3 - 0.0 - - - - - - -
28/09:30am 35.3 ESE 12 16 1011.4 - 0.0 - - - - - - -
28/09:00am 34.4 ESE 11 15 1011.3 - 0.0 - - - - - - -
28/08:30am 32.8 SE 14 18 1011.3 - 0.0 - - - - - - -
28/08:00am 31.3 SE 15 21 1011.2 - 0.0 - - - - - - -
28/07:30am 30.0 SE 14 18 1011.4 - 0.0 - - - - - - -
28/07:00am 27.7 SE 12 16 1011.3 - 0.0 - - - - - - -
28/06:30am 25.7 SSE 10 13 1011.3 - 0.0 - - - - - - -
28/06:00am 23.3 SSE 8 11 1011.1 - 0.0 - - - - - - -
28/05:30am 22.2 SSE 7 9 1010.8 - 0.0 - - - - - - -
28/05:00am 23.4 SSE 7 10 1010.6 - 0.0 - - - - - - -
28/04:30am 24.8 SE 9 11 1010.4 - 0.0 - - - - - - -
28/04:00am 23.8 SE 7 8 1010.2 - 0.0 - - - - - - -
28/03:30am 24.7 SSE 8 9 1010.2 - 0.0 - - - - - - -
28/03:00am 25.8 SE 9 11 1010.2 - 0.0 - - - - - - -
28/02:30am 26.5 SE 10 14 1010.1 - 0.0 - - - - - - -
28/02:00am 26.8 SE 10 14 1010.2 - 0.0 - - - - - - -
28/01:30am 27.6 SE 10 13 1010.2 - 0.0 - - - - - - -
28/01:00am 28.7 SE 12 16 1010.3 - 0.0 - - - - - - -
28/12:30am 29.5 SE 14 19 1010.2 - 0.0 - - - - - - -
28/12:00am 30.1 SSE 14 20 1010.2 - 0.0 - - - - - - -
 
Date/Time
WST
Temp

°C
Wind Pressure Rain
since 9am
mm
Weather Cloud Vis
km
Sea
Height
m
Swell
Dir
 
Speed
knots
Gust
knots
hPa Trend Height
m
Period
s
Dir
27/11:30pm 30.2 SSE 13 19 1010.3 - 0.0 - - - - - - -
27/11:00pm 30.4 SSE 13 18 1010.3 - 0.0 - - - - - - -
27/10:30pm 30.3 SSE 14 19 1010.3 - 0.0 - - - - - - -
27/10:00pm 30.1 SSE 14 19 1010.1 - 0.0 - - - - - - -
27/09:30pm 30.1 SSE 15 20 1009.8 - 0.0 - - - - - - -
27/09:00pm 29.7 S 14 23 1009.7 - 0.0 - - - - - - -
27/08:30pm 29.7 S 13 18 1009.5 - 0.0 - - - - - - -
27/08:00pm 30.7 S 15 23 1009.4 - 0.0 - - - - - - -
27/07:30pm 31.6 S 18 26 1009.1 - 0.0 - - - - - - -
27/07:02pm 32.4 S 17 27 1008.8 - 0.0 - - - - - - -
27/07:00pm 32.5 S 19 27 1008.8 - 0.0 - - - - - - -
27/06:30pm 34.7 S 17 25 1008.5 - 0.0 - - - - - - -
27/06:00pm 36.0 S 19 23 1008.3 - 0.0 - - - - - - -
27/05:30pm 37.6 S 18 24 1008.1 - 0.0 - - - - - - -
27/05:00pm 37.9 SSW 17 26 1007.9 - 0.0 - - - - - - -
27/04:59pm 37.8 SSW 17 24 1007.9 - 0.0 - - - - - - -
27/04:30pm 41.5 ESE 8 14 1007.7 - 0.0 - - - - - - -
27/04:00pm 41.5 SE 10 16 1007.7 - 0.0 - - - - - - -
27/03:30pm 42.3 E 11 17 1008.0 - 0.0 - - - - - - -
27/03:00pm 41.4 ESE 8 16 1008.4 - 0.0 - - - - - - -
27/02:30pm 41.4 E 8 13 1008.6 - 0.0 - - - - - - -
27/02:00pm 41.8 E 10 17 1009.0 - 0.0 - - - - - - -
27/01:30pm 42.3 ESE 10 17 1009.1 - 0.0 - - - - - - -
27/01:00pm 40.9 NE 10 13 1009.5 - 0.0 - - - - - - -
27/12:30pm 40.5 ENE 11 18 1009.9 - 0.0 - - - - - - -
27/12:00pm 40.4 NE 12 17 1010.1 - 0.0 - - - - - - -
27/11:30am 39.9 ENE 14 20 1010.3 - 0.0 - - - - - - -
27/11:00am 39.2 ENE 14 19 1010.6 - 0.0 - - - - - - -
27/10:30am 38.4 ENE 15 20 1010.7 - 0.0 - - - - - - -
27/10:00am 37.4 ENE 16 23 1010.9 - 0.0 - - - - - - -
27/09:30am 36.6 ENE 17 24 1010.9 - 0.0 - - - - - - -
27/09:00am 35.1 ENE 17 25 1010.8 - 0.0 - - - - - - -
27/08:30am 33.9 ENE 17 25 1010.9 - 0.0 - - - - - - -
27/08:00am 33.1 E 16 23 1010.9 - 0.0 - - - - - - -
27/07:30am 32.3 E 16 23 1010.7 - 0.0 - - - - - - -
27/07:00am 30.4 E 13 17 1010.6 - 0.0 - - - - - - -
27/06:30am 27.5 E 10 13 1010.3 - 0.0 - - - - - - -
27/06:00am 24.7 ESE 10 11 1009.9 - 0.0 - - - - - - -
27/05:30am 24.2 ESE 9 12 1009.7 - 0.0 - - - - - - -
27/05:00am 23.3 SE 9 10 1009.4 - 0.0 - - - - - - -
27/04:30am 23.1 SE 9 11 1009.1 - 0.0 - - - - - - -
27/04:00am 22.7 SE 8 9 1008.7 - 0.0 - - - - - - -
27/03:30am 23.2 SE 8 9 1008.5 - 0.0 - - - - - - -
27/03:00am 23.6 SE 8 9 1008.5 - 0.0 - - - - - - -
27/02:30am 23.5 SE 7 9 1008.3 - 0.0 - - - - - - -
27/02:00am 23.4 SE 7 9 1008.3 - 0.0 - - - - - - -
27/01:30am 24.1 SSE 8 10 1008.3 - 0.0 - - - - - - -
27/01:00am 24.5 SSE 9 13 1008.3 - 0.0 - - - - - - -
27/12:30am 25.0 SSE 11 15 1008.4 - 0.0 - - - - - - -
27/12:00am 25.2 SSE 12 17 1008.5 - 0.0 - - - - - - -
 
Date/Time
WST
Temp

°C
Wind Pressure Rain
since 9am
mm
Weather Cloud Vis
km
Sea
Height
m
Swell
Dir
 
Speed
knots
Gust
knots
hPa Trend Height
m
Period
s
Dir
26/11:30pm 25.4 SSE 12 18 1008.6 - 0.0 - - - - - - -
26/11:00pm 25.8 SSE 14 19 1008.6 - 0.0 - - - - - - -
26/10:30pm 26.3 SSE 16 23 1008.4 - 0.0 - - - - - - -
26/10:13pm 27.0 SSE 17 27 1008.3 - 0.0 - - - - - - -
26/10:00pm 27.5 SSE 16 23 1008.2 - 0.0 - - - - - - -
26/09:42pm 27.8 SSE 17 27 1008.1 - 0.0 - - - - - - -
26/09:30pm 27.8 S 19 26 1007.9 - 0.0 - - - - - - -
26/09:09pm 28.4 S 18 29 1007.9 - 0.0 - - - - - - -
26/09:00pm 28.4 S 18 25 1007.9 - 0.0 - - - - - - -
26/08:35pm 29.1 S 20 30 1007.8 - 0.0 - - - - - - -
26/08:30pm 29.1 S 21 30 1007.8 - 0.0 - - - - - - -
26/08:05pm 29.6 SSE 21 31 1007.7 - 0.0 - - - - - - -
26/08:00pm 29.7 SSE 21 28 1007.6 - 0.0 - - - - - - -
26/07:30pm 30.5 SSE 19 27 1007.4 - 0.0 - - - - - - -
26/07:10pm 31.1 S 19 29 1007.2 - 0.0 - - - - - - -
26/07:00pm 31.4 S 21 30 1007.1 - 0.0 - - - - - - -
26/06:51pm 31.7 S 20 30 1007.0 - 0.0 - - - - - - -
26/06:30pm 32.7 S 21 30 1006.9 - 0.0 - - - - - - -
26/06:02pm 34.1 S 20 31 1006.7 - 0.0 - - - - - - -
26/06:00pm 34.4 S 19 27 1006.7 - 0.0 - - - - - - -
26/05:36pm 35.8 S 22 32 1006.5 - 0.0 - - - - - - -
26/05:30pm 36.2 S 23 31 1006.5 - 0.0 - - - - - - -
26/05:06pm 38.7 S 19 29 1006.3 - 0.0 - - - - - - -
26/05:00pm 38.8 S 19 26 1006.2 - 0.0 - - - - - - -
26/04:30pm 40.9 SE 11 18 1006.3 - 0.0 - - - - - - -
26/04:00pm 41.6 ESE 11 17 1006.4 - 0.0 - - - - - - -
26/03:30pm 41.7 SE 11 18 1006.7 - 0.0 - - - - - - -
26/03:00pm 41.6 E 7 15 1007.0 - 0.0 - - - - - - -
26/02:30pm 42.1 E 11 18 1007.2 - 0.0 - - - - - - -
26/02:00pm 41.7 E 11 17 1007.7 - 0.0 - - - - - - -
26/01:30pm 40.9 ENE 14 21 1008.1 - 0.0 - - - - - - -
26/01:00pm 40.6 E 14 21 1008.3 - 0.0 - - - - - - -
26/12:30pm 40.2 ENE 15 22 1008.7 - 0.0 - - - - - - -
26/12:00pm 40.2 ENE 14 21 1009.0 - 0.0 - - - - - - -
26/11:30am 39.3 ENE 15 21 1009.3 - 0.0 - - - - - - -
26/11:00am 38.5 ENE 17 23 1009.6 - 0.0 - - - - - - -
26/10:30am 38.1 ENE 16 22 1009.9 - 0.0 - - - - - - -
26/10:25am 38.7 ENE 15 25 1009.9 - 0.0 - - - - - - -
26/10:00am 37.4 ENE 17 24 1010.2 - 0.0 - - - - - - -
26/09:30am 37.1 ENE 17 25 1010.2 - 0.0 - - - - - - -
26/09:00am 35.5 ENE 19 28 1010.1 - 0.0 - - - - - - -
26/08:55am 35.6 ENE 17 28 1010.2 - 0.0 - - - - - - -
26/08:30am 34.4 E 20 27 1010.2 - 0.0 - - - - - - -
26/08:22am 34.6 E 17 27 1010.2 - 0.0 - - - - - - -
26/08:00am 33.9 E 17 25 1010.4 - 0.0 - - - - - - -
26/07:30am 32.8 E 17 22 1010.2 - 0.0 - - - - - - -
26/07:00am 31.4 E 14 20 1010.0 - 0.0 - - - - - - -
26/06:30am 29.8 E 12 16 1009.7 - 0.0 - - - - - - -
26/06:00am 28.7 ESE 13 18 1009.3 - 0.0 - - - - - - -
26/05:30am 28.3 ESE 14 19 1008.9 - 0.0 - - - - - - -
26/05:00am 28.4 ESE 13 17 1008.6 - 0.0 - - - - - - -
26/04:30am 28.4 ESE 13 17 1008.3 - 0.0 - - - - - - -
26/04:00am 28.8 ESE 13 17 1008.1 - 0.0 - - - - - - -
26/03:30am 28.9 SE 13 19 1008.0 - 0.0 - - - - - - -
26/03:00am 27.7 SE 11 16 1007.8 - 0.0 - - - - - - -
26/02:30am 26.9 SE 10 13 1007.8 - 0.0 - - - - - - -
26/02:00am 26.6 SE 9 11 1007.6 - 0.0 - - - - - - -
26/01:30am 26.2 ESE 8 9 1007.7 - 0.0 - - - - - - -
26/01:00am 26.6 ESE 7 9 1008.0 - 0.0 - - - - - - -
26/12:30am 27.5 ESE 9 13 1007.9 - 0.0 - - - - - - -
26/12:00am 27.5 SE 9 11 1008.0 - 0.0 - - - - - - -
 
Date/Time
WST
Temp

°C
Wind Pressure Rain
since 9am
mm
Weather Cloud Vis
km
Sea
Height
m
Swell
Dir
 
Speed
knots
Gust
knots
hPa Trend Height
m
Period
s
Dir
25/11:30pm 26.4 SSE 9 12 1008.0 - 0.0 - - - - - - -
25/11:00pm 25.9 S 13 16 1007.9 - 0.0 - - - - - - -
25/10:30pm 25.9 S 15 20 1008.1 - 0.0 - - - - - - -
25/10:00pm 26.3 S 14 18 1008.0 - 0.0 - - - - - - -
25/09:30pm 25.8 S 13 19 1007.9 - 0.0 - - - - - - -
25/09:00pm 25.6 S 15 21 1007.8 - 0.0 - - - - - - -
25/08:30pm 26.1 S 16 25 1007.7 - 0.0 - - - - - - -
25/08:24pm 26.3 S 15 25 1007.8 - 0.0 - - - - - - -
25/08:00pm 26.1 SSW 14 19 1007.7 - 0.0 - - - - - - -
25/07:30pm 26.5 SSW 16 23 1007.5 - 0.0 - - - - - - -
25/07:00pm 27.5 SSW 18 23 1007.4 - 0.0 - - - - - - -
25/06:30pm 29.3 SSW 17 23 1007.1 - 0.0 - - - - - - -
25/06:00pm 31.9 SSW 16 23 1006.8 - 0.0 - - - - - - -
25/05:30pm 33.2 SSW 18 23 1006.6 - 0.0 - - - - - - -
25/05:00pm 35.2 SSW 17 25 1006.2 - 0.0 - - - - - - -
25/04:30pm 37.3 SSW 17 25 1006.2 - 0.0 - - - - - - -
25/04:23pm 36.7 SW 15 25 1006.3 - 0.0 - - - - - - -
25/04:09pm 37.8 SSW 14 23 1006.3 - 0.0 - - - - - - -
25/04:00pm 39.0 SSE 8 15 1006.5 - 0.0 - - - - - - -
25/03:30pm 39.6 E 9 17 1006.9 - 0.0 - - - - - - -

Other Formats:

Comma delimited format used in spreadsheet applications
http://www.bom.gov.au/fwo/IDW60701/IDW60701.95402.axf

JavaScript Object Notation format (JSON) in row-major order
http://www.bom.gov.au/fwo/IDW60701/IDW60701.95402.json